Time;durP1;ratioP1;P1;durP2;ratioP2;P2;SDS_P1;SDS_P2;PMS_P1;PMS_P2;Temp;Humidity;BMP_temperature;BMP_pressure;BME280_temperature;BME280_humidity;BME280_pressure;Samples;Min_cycle;Max_cycle;Signal;HPM_P1;HPM_P2
2022/08/16 00:00:02;;;;;;;;;;;;;;;25.37;55.33;100234.22;1029722;28;648;-68
2022/08/16 00:00:52;;;;;;;;;;;;;;;25.36;55.49;100235.25;1029738;28;681;-68
2022/08/16 00:01:43;;;;;;;;;;;;;;;25.36;55.47;100236.09;1029747;28;685;-67
2022/08/16 00:02:33;;;;;;;;;;;;;;;25.36;55.40;100236.09;1029740;28;647;-67
2022/08/16 00:03:23;;;;;;;;;;;;;;;25.37;55.34;100231.47;1029749;28;780;-67
2022/08/16 00:04:14;;;;;;;;;;;;;;;25.34;55.46;100238.19;1029753;28;1266;-67
2022/08/16 00:05:04;;;;;;;;;;;;;;;25.34;55.43;100235.47;1029663;28;646;-67
2022/08/16 00:05:55;;;;;;;;;;;;;;;25.34;55.49;100237.34;1029307;28;686;-67
2022/08/16 00:06:45;;;;;;;;;;;;;;;25.31;55.45;100238.59;1033257;28;1910;-67
2022/08/16 00:07:36;;;;;;;;;;;;;;;25.35;55.47;100239.03;1033939;28;717;-67
2022/08/16 00:08:26;;;;;;;;;;;;;;;25.32;55.43;100236.72;1029776;28;701;-67
2022/08/16 00:09:16;;;;;;;;;;;;;;;25.31;55.55;100240.50;1033496;28;720;-67
2022/08/16 00:10:07;;;;;;;;;;;;;;;25.33;55.45;100241.13;1033978;28;672;-67
2022/08/16 00:10:57;;;;;;;;;;;;;;;25.33;55.50;100243.84;1030394;28;624;-67
2022/08/16 00:11:48;;;;;;;;;;;;;;;25.30;55.57;100231.47;1029666;28;677;-67
2022/08/16 00:12:41;;;;;;;;;;;;;;;25.33;55.39;100241.13;1029655;28;681;-67
2022/08/16 00:13:32;;;;;;;;;;;;;;;25.33;55.49;100241.13;1029645;28;641;-67
2022/08/16 00:14:23;;;;;;;;;;;;;;;25.33;55.54;100241.97;1029769;28;697;-67
2022/08/16 00:15:13;;;;;;;;;;;;;;;25.33;55.50;100241.13;1029655;28;606;-67
2022/08/16 00:16:03;;;;;;;;;;;;;;;25.32;55.54;100239.44;1032344;28;1177;-67
2022/08/16 00:16:54;;;;;;;;;;;;;;;25.31;55.64;100241.34;1033653;28;771;-67
2022/08/16 00:17:44;;;;;;;;;;;;;;;25.29;55.51;100240.69;1033756;28;614;-67
2022/08/16 00:18:36;;;;;;;;;;;;;;;25.27;55.57;100231.88;1033691;28;629;-67
2022/08/16 00:19:26;;;;;;;;;;;;;;;25.26;55.58;100241.97;1033163;28;725;-67
2022/08/16 00:20:16;;;;;;;;;;;;;;;25.26;55.66;100241.13;1033028;28;682;-67
2022/08/16 00:21:07;;;;;;;;;;;;;;;25.26;55.62;100244.69;1033119;28;677;-67
2022/08/16 00:21:57;;;;;;;;;;;;;;;25.29;55.63;100245.31;1033692;28;629;-67
2022/08/16 00:22:48;;;;;;;;;;;;;;;25.27;55.55;100246.38;1033614;28;614;-67
2022/08/16 00:23:38;;;;;;;;;;;;;;;25.26;55.75;100241.13;1033721;28;598;-67
2022/08/16 00:24:29;;;;;;;;;;;;;;;25.26;55.71;100243.84;1033813;28;689;-67
2022/08/16 00:25:19;;;;;;;;;;;;;;;25.25;55.59;100256.69;1033660;28;723;-69
2022/08/16 00:26:10;;;;;;;;;;;;;;;25.26;55.53;100247.41;1033647;28;630;-67
2022/08/16 00:27:00;;;;;;;;;;;;;;;25.27;55.60;100248.25;1033707;28;653;-67
2022/08/16 00:27:51;;;;;;;;;;;;;;;25.26;55.53;100249.31;1033719;28;613;-67
2022/08/16 00:28:41;;;;;;;;;;;;;;;25.27;55.39;100249.09;1033731;28;779;-67
2022/08/16 00:29:31;;;;;;;;;;;;;;;25.26;55.66;100252.88;1033093;28;779;-67
2022/08/16 00:30:22;;;;;;;;;;;;;;;25.27;55.50;100260.00;1033572;28;748;-67
2022/08/16 00:31:12;;;;;;;;;;;;;;;25.27;55.39;100256.44;1033218;28;647;-67
2022/08/16 00:32:03;;;;;;;;;;;;;;;25.25;55.54;100262.13;1033655;28;634;-67
2022/08/16 00:32:53;;;;;;;;;;;;;;;25.25;55.60;100255.84;1033689;28;651;-67
2022/08/16 00:33:43;;;;;;;;;;;;;;;25.25;55.55;100251.22;1033810;28;661;-67
2022/08/16 00:34:34;;;;;;;;;;;;;;;25.24;55.61;100254.16;1036765;28;611;-67
2022/08/16 00:35:24;;;;;;;;;;;;;;;25.23;55.68;100261.50;1037332;28;664;-67
2022/08/16 00:36:15;;;;;;;;;;;;;;;25.23;55.73;100256.03;1033724;28;622;-67
2022/08/16 00:37:05;;;;;;;;;;;;;;;25.21;55.62;100262.75;1036719;28;822;-67
2022/08/16 00:37:55;;;;;;;;;;;;;;;25.19;55.75;100257.50;1037436;28;630;-67
2022/08/16 00:38:46;;;;;;;;;;;;;;;25.19;55.68;100257.50;1033722;28;669;-67
2022/08/16 00:39:36;;;;;;;;;;;;;;;25.19;55.71;100256.66;1033110;28;702;-68
2022/08/16 00:40:27;;;;;;;;;;;;;;;25.19;55.59;100254.78;1033626;28;697;-67
2022/08/16 00:41:17;;;;;;;;;;;;;;;25.19;55.64;100257.50;1036888;28;614;-67
2022/08/16 00:42:08;;;;;;;;;;;;;;;25.20;55.71;100263.78;1035663;28;628;-67
2022/08/16 00:42:58;;;;;;;;;;;;;;;25.19;55.47;100257.50;1033662;28;650;-67
2022/08/16 00:43:49;;;;;;;;;;;;;;;25.19;55.73;100251.22;1033634;28;661;-67
2022/08/16 00:44:39;;;;;;;;;;;;;;;25.19;55.78;100262.13;1033604;28;661;-67
2022/08/16 00:45:30;;;;;;;;;;;;;;;25.19;55.67;100251.22;1033636;28;638;-67
2022/08/16 00:46:20;;;;;;;;;;;;;;;25.19;55.71;100256.66;1033662;28;642;-67
2022/08/16 00:47:11;;;;;;;;;;;;;;;25.19;55.70;100259.38;1033622;28;642;-67
2022/08/16 00:48:01;;;;;;;;;;;;;;;25.17;55.79;100259.59;1033056;28;744;-67
2022/08/16 00:48:52;;;;;;;;;;;;;;;25.15;55.85;100253.50;1033720;28;755;-67
2022/08/16 00:49:42;;;;;;;;;;;;;;;25.16;55.73;100254.34;1032689;28;708;-67
2022/08/16 00:50:32;;;;;;;;;;;;;;;25.16;55.65;100262.53;1033683;28;646;-67
2022/08/16 00:51:24;;;;;;;;;;;;;;;25.16;55.84;100257.91;1033566;28;653;-67
2022/08/16 00:52:14;;;;;;;;;;;;;;;25.16;55.59;100252.47;1033681;28;610;-67
2022/08/16 00:53:04;;;;;;;;;;;;;;;25.16;55.66;100257.91;1033724;28;768;-67
2022/08/16 00:53:55;;;;;;;;;;;;;;;25.15;55.68;100256.22;1033682;28;598;-67
2022/08/16 00:54:45;;;;;;;;;;;;;;;25.16;55.72;100257.06;1033612;28;685;-67
2022/08/16 00:55:36;;;;;;;;;;;;;;;25.16;55.73;100257.91;1033548;28;640;-67
2022/08/16 00:56:26;;;;;;;;;;;;;;;25.14;55.76;100257.28;1033600;28;685;-67
2022/08/16 00:57:17;;;;;;;;;;;;;;;25.13;55.75;100260.22;1033033;28;658;-67
2022/08/16 00:58:08;;;;;;;;;;;;;;;25.13;55.76;100258.31;1033118;28;705;-67
2022/08/16 00:58:58;;;;;;;;;;;;;;;25.13;55.79;100263.78;1033075;28;779;-67
2022/08/16 00:59:48;;;;;;;;;;;;;;;25.11;55.81;100265.88;1036288;28;1213;-67
2022/08/16 01:00:39;;;;;;;;;;;;;;;25.12;55.59;100262.09;1037648;28;657;-67
2022/08/16 01:01:31;;;;;;;;;;;;;;;25.12;55.76;100266.72;1037514;28;626;-67
2022/08/16 01:02:22;;;;;;;;;;;;;;;25.12;55.64;100266.72;1035808;28;608;-67
2022/08/16 01:03:12;;;;;;;;;;;;;;;25.12;55.73;100261.25;1036518;28;654;-67
2022/08/16 01:04:03;;;;;;;;;;;;;;;25.11;55.75;100265.88;1037202;28;638;-67
2022/08/16 01:04:53;;;;;;;;;;;;;;;25.10;55.78;100264.19;1037675;28;709;-67
2022/08/16 01:05:43;;;;;;;;;;;;;;;25.11;55.82;100254.97;1035825;28;615;-67
2022/08/16 01:06:34;;;;;;;;;;;;;;;25.11;55.75;100260.41;1037595;28;1967;-67
2022/08/16 01:07:24;;;;;;;;;;;;;;;25.10;55.71;100261.47;1037621;28;631;-67
2022/08/16 01:08:15;;;;;;;;;;;;;;;25.11;55.75;100254.97;1035870;28;612;-67
2022/08/16 01:09:05;;;;;;;;;;;;;;;25.11;55.44;100270.47;1036254;28;861;-67
2022/08/16 01:09:56;;;;;;;;;;;;;;;25.10;55.83;100256.00;1036727;28;626;-67
2022/08/16 01:10:46;;;;;;;;;;;;;;;25.08;55.76;100263.56;1037111;28;633;-67
2022/08/16 01:11:36;;;;;;;;;;;;;;;25.08;56.05;100266.28;1035779;28;532;-69
2022/08/16 01:12:27;;;;;;;;;;;;;;;25.07;56.21;100259.19;1036111;28;693;-67
2022/08/16 01:13:17;;;;;;;;;;;;;;;25.08;55.89;100263.56;1036725;28;658;-67
2022/08/16 01:14:08;;;;;;;;;;;;;;;25.08;55.63;100258.09;1036957;28;638;-67
2022/08/16 01:14:58;;;;;;;;;;;;;;;25.08;55.91;100262.75;1037564;28;638;-67
2022/08/16 01:15:49;;;;;;;;;;;;;;;25.07;55.77;100253.72;1036858;28;1268;-67
2022/08/16 01:16:39;;;;;;;;;;;;;;;25.08;55.95;100254.56;1032490;28;650;-67
2022/08/16 01:17:30;;;;;;;;;;;;;;;25.07;55.93;100256.44;1032712;28;673;-67
2022/08/16 01:18:20;;;;;;;;;;;;;;;25.06;55.91;100252.03;1033722;28;765;-67
2022/08/16 01:19:10;;;;;;;;;;;;;;;25.07;55.93;100252.88;1034029;28;594;-67
2022/08/16 01:20:01;;;;;;;;;;;;;;;25.06;55.84;100252.03;1032457;28;624;-67
2022/08/16 01:20:51;;;;;;;;;;;;;;;25.04;55.80;100251.41;1032522;28;650;-67
2022/08/16 01:21:42;;;;;;;;;;;;;;;25.03;55.83;100252.47;1032433;28;599;-67
2022/08/16 01:22:32;;;;;;;;;;;;;;;25.04;55.97;100251.41;1032455;28;658;-67
2022/08/16 01:23:23;;;;;;;;;;;;;;;25.04;55.86;100254.13;1032325;28;646;-67
2022/08/16 01:24:13;;;;;;;;;;;;;;;25.04;56.05;100248.69;1032507;28;633;-67
2022/08/16 01:25:03;;;;;;;;;;;;;;;25.05;55.85;100258.53;1032410;28;666;-68
2022/08/16 01:25:54;;;;;;;;;;;;;;;25.04;55.89;100256.03;1032507;28;693;-67
2022/08/16 01:26:44;;;;;;;;;;;;;;;25.03;55.76;100255.19;1032439;28;1954;-67
2022/08/16 01:27:35;;;;;;;;;;;;;;;25.04;55.81;100254.13;1032390;28;619;-67
2022/08/16 01:28:26;;;;;;;;;;;;;;;25.03;56.04;100252.47;1032552;28;671;-67
2022/08/16 01:29:16;;;;;;;;;;;;;;;25.03;56.01;100257.91;1033931;28;704;-67
2022/08/16 01:30:07;;;;;;;;;;;;;;;25.02;55.90;100258.94;1033813;28;622;-67
2022/08/16 01:30:57;;;;;;;;;;;;;;;25.03;55.77;100251.63;1033964;28;721;-67
2022/08/16 01:31:48;;;;;;;;;;;;;;;25.03;55.97;100262.53;1032510;28;623;-67
2022/08/16 01:32:41;;;;;;;;;;;;;;;25.02;55.77;100252.66;1032464;28;638;-67
2022/08/16 01:33:31;;;;;;;;;;;;;;;25.00;56.00;100255.59;1034583;28;642;-67
2022/08/16 01:34:22;;;;;;;;;;;;;;;25.00;56.02;100255.59;1032338;28;651;-67
2022/08/16 01:35:12;;;;;;;;;;;;;;;24.99;56.02;100251.19;1032444;28;666;-67
2022/08/16 01:36:02;;;;;;;;;;;;;;;25.01;56.06;100249.09;1032328;28;690;-67
2022/08/16 01:36:53;;;;;;;;;;;;;;;25.01;56.01;100246.38;1032351;28;646;-67
2022/08/16 01:37:43;;;;;;;;;;;;;;;25.00;55.96;100241.97;1032770;28;686;-67
2022/08/16 01:38:34;;;;;;;;;;;;;;;24.99;55.88;100244.88;1033829;28;666;-67
2022/08/16 01:39:24;;;;;;;;;;;;;;;24.99;56.07;100239.44;1033907;28;642;-67
2022/08/16 01:40:15;;;;;;;;;;;;;;;24.97;56.04;100242.38;1032343;28;611;-67
2022/08/16 01:41:05;;;;;;;;;;;;;;;24.97;56.11;100241.53;1032405;28;631;-67
2022/08/16 01:41:56;;;;;;;;;;;;;;;24.97;55.99;100242.38;1032446;28;690;-67
2022/08/16 01:42:46;;;;;;;;;;;;;;;24.98;56.03;100248.66;1032690;28;623;-67
2022/08/16 01:43:36;;;;;;;;;;;;;;;24.97;56.09;100247.81;1033644;28;670;-67
2022/08/16 01:44:27;;;;;;;;;;;;;;;24.97;56.05;100245.09;1034066;28;665;-67
2022/08/16 01:45:17;;;;;;;;;;;;;;;24.96;56.13;100248.03;1032415;28;615;-67
2022/08/16 01:46:08;;;;;;;;;;;;;;;24.95;56.29;100244.47;1032368;28;633;-67
2022/08/16 01:46:58;;;;;;;;;;;;;;;24.97;56.11;100249.72;1032436;28;1957;-67
2022/08/16 01:47:49;;;;;;;;;;;;;;;24.94;55.96;100245.50;1032006;28;631;-67
2022/08/16 01:48:39;;;;;;;;;;;;;;;24.93;56.14;100243.78;1032535;28;663;-67
2022/08/16 01:49:31;;;;;;;;;;;;;;;24.94;56.21;100250.97;1033073;28;705;-67
2022/08/16 01:50:21;;;;;;;;;;;;;;;24.93;55.92;100249.25;1034919;28;685;-67
2022/08/16 01:51:12;;;;;;;;;;;;;;;24.94;56.08;100248.22;1033182;28;618;-67
2022/08/16 01:52:02;;;;;;;;;;;;;;;24.91;56.09;100245.88;1033191;28;639;-67
2022/08/16 01:52:53;;;;;;;;;;;;;;;24.92;56.03;100247.56;1033130;28;623;-67
2022/08/16 01:53:44;;;;;;;;;;;;;;;24.92;56.13;100244.84;1034765;28;682;-67
2022/08/16 01:54:34;;;;;;;;;;;;;;;24.91;55.95;100246.72;1033163;28;668;-67
2022/08/16 01:55:25;;;;;;;;;;;;;;;24.91;56.13;100251.34;1033020;28;643;-67
2022/08/16 01:56:15;;;;;;;;;;;;;;;24.92;56.10;100247.56;1033310;28;688;-67
2022/08/16 01:57:05;;;;;;;;;;;;;;;24.89;56.21;100245.28;1033078;28;666;-67
2022/08/16 01:57:56;;;;;;;;;;;;;;;24.89;56.28;100245.28;1033061;28;678;-67
2022/08/16 01:58:46;;;;;;;;;;;;;;;24.89;56.04;100239.81;1033263;28;666;-67
2022/08/16 01:59:37;;;;;;;;;;;;;;;24.91;56.09;100245.88;1032854;28;1127;-67
2022/08/16 02:00:27;;;;;;;;;;;;;;;24.89;56.18;100245.28;1033116;28;631;-68
2022/08/16 02:01:18;;;;;;;;;;;;;;;24.89;56.08;100253.47;1033165;28;618;-67
2022/08/16 02:02:09;;;;;;;;;;;;;;;24.87;56.16;100245.47;1032790;28;661;-67
2022/08/16 02:03:01;;;;;;;;;;;;;;;24.88;56.21;100251.78;1035409;28;673;-67
2022/08/16 02:03:51;;;;;;;;;;;;;;;24.88;56.00;100244.44;1034776;28;638;-67
2022/08/16 02:04:42;;;;;;;;;;;;;;;24.88;56.27;100244.44;1033029;28;557;-67
2022/08/16 02:05:32;;;;;;;;;;;;;;;24.87;56.21;100252.81;1033123;28;681;-68
2022/08/16 02:06:23;;;;;;;;;;;;;;;24.85;56.21;100249.47;1032953;28;657;-67
2022/08/16 02:07:14;;;;;;;;;;;;;;;24.85;56.17;100250.31;1033080;28;672;-67
2022/08/16 02:08:05;;;;;;;;;;;;;;;24.84;56.34;100248.63;1035538;28;625;-67
2022/08/16 02:08:56;;;;;;;;;;;;;;;24.85;56.06;100250.31;1033225;28;657;-67
2022/08/16 02:09:46;;;;;;;;;;;;;;;24.86;56.11;100257.44;1033653;28;689;-67
2022/08/16 02:10:37;;;;;;;;;;;;;;;24.84;56.17;100248.63;1033071;28;717;-67
2022/08/16 02:11:27;;;;;;;;;;;;;;;24.84;56.44;100254.06;1034695;28;704;-67
2022/08/16 02:12:18;;;;;;;;;;;;;;;24.85;56.20;100249.47;1032979;28;689;-67
2022/08/16 02:13:08;;;;;;;;;;;;;;;24.85;55.93;100254.91;1033074;28;662;-67
2022/08/16 02:13:58;;;;;;;;;;;;;;;24.84;56.32;100250.50;1033220;28;650;-68
2022/08/16 02:14:49;;;;;;;;;;;;;;;24.84;56.24;100256.78;1032957;28;682;-67
2022/08/16 02:15:40;;;;;;;;;;;;;;;24.85;56.27;100254.91;1034178;28;728;-67
2022/08/16 02:16:30;;;;;;;;;;;;;;;24.83;56.11;100257.84;1029223;28;645;-67
2022/08/16 02:17:21;;;;;;;;;;;;;;;24.82;56.45;100261.59;1030119;28;630;-67
2022/08/16 02:18:11;;;;;;;;;;;;;;;24.82;56.18;100255.31;1030089;28;635;-67
2022/08/16 02:19:01;;;;;;;;;;;;;;;24.82;56.37;100256.16;1030078;28;701;-67
2022/08/16 02:19:52;;;;;;;;;;;;;;;24.83;56.19;100252.38;1030099;28;805;-67
2022/08/16 02:20:43;;;;;;;;;;;;;;;24.82;56.21;100249.88;1029547;28;657;-67
2022/08/16 02:21:33;;;;;;;;;;;;;;;24.82;56.34;100255.31;1030033;28;663;-67
2022/08/16 02:22:24;;;;;;;;;;;;;;;24.82;56.26;100258.03;1030115;28;638;-67
2022/08/16 02:23:14;;;;;;;;;;;;;;;24.82;56.33;100244.41;1030105;28;682;-67
2022/08/16 02:24:05;;;;;;;;;;;;;;;24.81;56.20;100250.91;1030135;28;686;-67
2022/08/16 02:24:55;;;;;;;;;;;;;;;24.79;56.30;100251.13;1030026;28;611;-67
2022/08/16 02:25:46;;;;;;;;;;;;;;;24.80;56.13;100251.97;1030027;28;619;-67
2022/08/16 02:26:37;;;;;;;;;;;;;;;24.79;56.26;100247.53;1030034;28;1963;-67
2022/08/16 02:27:27;;;;;;;;;;;;;;;24.80;56.22;100246.50;1030128;28;626;-67
2022/08/16 02:28:17;;;;;;;;;;;;;;;24.80;56.07;100249.22;1030035;28;606;-67
2022/08/16 02:29:08;;;;;;;;;;;;;;;24.79;56.24;100248.38;1030035;28;643;-67
2022/08/16 02:29:58;;;;;;;;;;;;;;;24.78;56.23;100248.59;1030076;28;642;-67
2022/08/16 02:30:49;;;;;;;;;;;;;;;24.77;56.36;100246.91;1030099;28;732;-67
2022/08/16 02:31:39;;;;;;;;;;;;;;;24.77;56.24;100255.09;1030069;28;838;-67
2022/08/16 02:32:30;;;;;;;;;;;;;;;24.77;56.54;100255.09;1029470;28;851;-67
2022/08/16 02:33:20;;;;;;;;;;;;;;;24.77;56.54;100245.03;1029928;28;638;-67
2022/08/16 02:34:11;;;;;;;;;;;;;;;24.75;56.33;100254.44;1030206;28;619;-67
2022/08/16 02:35:01;;;;;;;;;;;;;;;24.75;56.40;100251.72;1030113;28;670;-67
2022/08/16 02:35:52;;;;;;;;;;;;;;;24.75;56.49;100249.00;1030088;28;635;-67
2022/08/16 02:36:42;;;;;;;;;;;;;;;24.75;56.48;100251.72;1029978;28;630;-67
2022/08/16 02:37:32;;;;;;;;;;;;;;;24.75;56.27;100254.44;1029987;28;1056;-67
2022/08/16 02:38:23;;;;;;;;;;;;;;;24.74;56.44;100247.31;1030026;28;677;-67
2022/08/16 02:39:13;;;;;;;;;;;;;;;24.76;56.37;100256.13;1030004;28;682;-67
2022/08/16 02:40:04;;;;;;;;;;;;;;;24.74;56.30;100252.78;1030133;28;630;-67
2022/08/16 02:40:55;;;;;;;;;;;;;;;24.73;56.62;100253.81;1029523;28;630;-67
2022/08/16 02:41:45;;;;;;;;;;;;;;;24.73;56.49;100251.94;1029500;28;619;-67
2022/08/16 02:42:36;;;;;;;;;;;;;;;24.75;56.44;100249.00;1030063;28;705;-67
2022/08/16 02:43:26;;;;;;;;;;;;;;;24.74;56.31;100252.78;1029938;28;635;-67
2022/08/16 02:44:17;;;;;;;;;;;;;;;24.74;56.30;100252.78;1030685;28;619;-67
2022/08/16 02:45:07;;;;;;;;;;;;;;;24.72;56.39;100252.16;1030017;28;605;-67
2022/08/16 02:45:58;;;;;;;;;;;;;;;24.71;56.63;100258.66;1030020;28;615;-66
2022/08/16 02:46:48;;;;;;;;;;;;;;;24.72;56.59;100258.44;1029962;28;1953;-67
2022/08/16 02:47:38;;;;;;;;;;;;;;;24.72;56.55;100254.88;1030005;28;678;-67
2022/08/16 02:48:29;;;;;;;;;;;;;;;24.71;56.42;100261.38;1030117;28;622;-66
2022/08/16 02:49:20;;;;;;;;;;;;;;;24.71;56.46;100256.78;1029396;28;634;-66
2022/08/16 02:50:10;;;;;;;;;;;;;;;24.70;56.40;100259.69;1029430;28;606;-66
2022/08/16 02:51:01;;;;;;;;;;;;;;;24.71;56.38;100258.66;1030014;28;611;-66
2022/08/16 02:51:51;;;;;;;;;;;;;;;24.69;56.50;100252.56;1029919;28;645;-66
2022/08/16 02:52:42;;;;;;;;;;;;;;;24.69;56.63;100252.56;1029971;28;657;-67
2022/08/16 02:53:32;;;;;;;;;;;;;;;24.69;56.46;100250.69;1029916;28;710;-67
2022/08/16 02:54:23;;;;;;;;;;;;;;;24.68;56.56;100249.00;1029902;28;596;-67
2022/08/16 02:55:13;;;;;;;;;;;;;;;24.68;56.48;100250.88;1029954;28;681;-67
2022/08/16 02:56:04;;;;;;;;;;;;;;;24.68;56.59;100253.63;1029902;28;657;-67
2022/08/16 02:56:54;;;;;;;;;;;;;;;24.66;56.42;100251.09;1029459;28;698;-67
2022/08/16 02:57:45;;;;;;;;;;;;;;;24.67;56.29;100246.47;1029983;28;650;-67
2022/08/16 02:58:35;;;;;;;;;;;;;;;24.67;56.63;100244.59;1029798;28;674;-67
2022/08/16 02:59:26;;;;;;;;;;;;;;;24.67;56.60;100247.31;1030024;28;643;-67
2022/08/16 03:00:16;;;;;;;;;;;;;;;24.67;56.62;100246.47;1028892;28;710;-67
2022/08/16 03:01:08;;;;;;;;;;;;;;;24.67;56.56;100246.47;1029963;28;720;-67
2022/08/16 03:01:58;;;;;;;;;;;;;;;24.66;56.42;100247.53;1029423;28;662;-67
2022/08/16 03:02:49;;;;;;;;;;;;;;;24.65;56.46;100240.41;1029912;28;689;-67
2022/08/16 03:03:39;;;;;;;;;;;;;;;24.66;56.64;100244.81;1029902;28;737;-67
2022/08/16 03:04:30;;;;;;;;;;;;;;;24.66;56.64;100250.25;1029930;28;677;-67
2022/08/16 03:05:20;;;;;;;;;;;;;;;24.66;56.57;100244.81;1029944;28;686;-67
2022/08/16 03:06:11;;;;;;;;;;;;;;;24.66;56.48;100245.63;1029862;28;754;-67
2022/08/16 03:07:01;;;;;;;;;;;;;;;24.65;56.54;100238.50;1029304;28;1975;-67
2022/08/16 03:07:52;;;;;;;;;;;;;;;24.65;56.83;100241.22;1029849;28;658;-67
2022/08/16 03:08:42;;;;;;;;;;;;;;;24.65;56.37;100237.66;1029807;28;654;-67
2022/08/16 03:09:32;;;;;;;;;;;;;;;24.64;56.66;100246.88;1029907;28;638;-67
2022/08/16 03:10:23;;;;;;;;;;;;;;;24.64;56.76;100236.84;1029886;28;646;-67
2022/08/16 03:11:15;;;;;;;;;;;;;;;24.63;56.46;100242.47;1029887;28;733;-68
2022/08/16 03:12:06;;;;;;;;;;;;;;;24.63;56.75;100242.47;1030087;28;677;-67
2022/08/16 03:12:57;;;;;;;;;;;;;;;24.63;56.54;100239.75;1029772;28;714;-67
2022/08/16 03:13:47;;;;;;;;;;;;;;;24.64;56.47;100241.44;1028995;28;690;-67
2022/08/16 03:14:38;;;;;;;;;;;;;;;24.63;56.67;100239.75;1029043;28;638;-67
2022/08/16 03:15:28;;;;;;;;;;;;;;;24.61;56.55;100237.22;1029323;28;662;-67
2022/08/16 03:16:19;;;;;;;;;;;;;;;24.60;56.87;100241.00;1033362;28;677;-67
2022/08/16 03:17:09;;;;;;;;;;;;;;;24.59;56.88;100242.06;1033025;28;638;-67
2022/08/16 03:18:00;;;;;;;;;;;;;;;24.61;56.71;100239.13;1034311;28;725;-67
2022/08/16 03:18:51;;;;;;;;;;;;;;;24.60;56.37;100240.16;1034596;28;650;-67
2022/08/16 03:19:41;;;;;;;;;;;;;;;24.58;56.68;100237.66;1032831;28;709;-67
2022/08/16 03:20:32;;;;;;;;;;;;;;;24.58;56.73;100243.94;1032823;28;726;-67
2022/08/16 03:21:22;;;;;;;;;;;;;;;24.58;56.72;100241.22;1032684;28;638;-67
2022/08/16 03:22:12;;;;;;;;;;;;;;;24.56;56.76;100240.56;1032901;28;642;-67
2022/08/16 03:23:03;;;;;;;;;;;;;;;24.57;56.73;100239.53;1032750;28;650;-67
2022/08/16 03:23:53;;;;;;;;;;;;;;;24.56;56.72;100239.72;1032873;28;650;-67
2022/08/16 03:24:44;;;;;;;;;;;;;;;24.57;56.74;100238.69;1032721;28;752;-67
2022/08/16 03:25:34;;;;;;;;;;;;;;;24.54;56.38;100237.22;1032731;28;631;-67
2022/08/16 03:26:24;;;;;;;;;;;;;;;24.54;56.83;100239.13;1032874;28;651;-67
2022/08/16 03:27:15;;;;;;;;;;;;;;;24.54;56.74;100231.75;1032759;28;663;-67
2022/08/16 03:28:05;;;;;;;;;;;;;;;24.55;56.62;100229.88;1032843;28;706;-67
2022/08/16 03:28:56;;;;;;;;;;;;;;;24.54;56.75;100237.22;1032336;28;674;-67
2022/08/16 03:29:46;;;;;;;;;;;;;;;24.54;56.71;100234.47;1032742;28;603;-67
2022/08/16 03:30:37;;;;;;;;;;;;;;;24.53;56.77;100234.72;1032808;28;634;-67
2022/08/16 03:31:27;;;;;;;;;;;;;;;24.54;56.83;100228.22;1032655;28;654;-67
2022/08/16 03:32:17;;;;;;;;;;;;;;;24.54;56.77;100236.41;1032810;28;648;-67
2022/08/16 03:33:08;;;;;;;;;;;;;;;24.54;56.63;100234.47;1032810;28;693;-67
2022/08/16 03:33:58;;;;;;;;;;;;;;;24.55;57.01;100233.44;1032927;28;690;-67
2022/08/16 03:34:49;;;;;;;;;;;;;;;24.54;56.41;100230.94;1034162;28;685;-67
2022/08/16 03:35:39;;;;;;;;;;;;;;;24.54;56.79;100233.66;1034306;28;649;-67
2022/08/16 03:36:30;;;;;;;;;;;;;;;24.53;56.80;100234.72;1032615;28;612;-67
2022/08/16 03:37:20;;;;;;;;;;;;;;;24.52;56.77;100243.94;1032726;28;659;-67
2022/08/16 03:38:11;;;;;;;;;;;;;;;24.51;56.70;100243.09;1032783;28;682;-67
2022/08/16 03:39:01;;;;;;;;;;;;;;;24.50;56.91;100240.56;1032680;28;646;-67
2022/08/16 03:39:51;;;;;;;;;;;;;;;24.52;56.67;100243.94;1032692;28;658;-67
2022/08/16 03:40:42;;;;;;;;;;;;;;;24.53;56.88;100240.16;1032704;28;622;-68
2022/08/16 03:41:32;;;;;;;;;;;;;;;24.52;56.64;100238.47;1032737;28;642;-67
2022/08/16 03:42:23;;;;;;;;;;;;;;;24.50;56.87;100244.13;1032799;28;674;-67
2022/08/16 03:43:13;;;;;;;;;;;;;;;24.50;56.65;100238.69;1032785;28;658;-67
2022/08/16 03:44:06;;;;;;;;;;;;;;;24.49;56.66;100236.16;1032776;28;621;-67
2022/08/16 03:44:56;;;;;;;;;;;;;;;24.48;56.74;100238.03;1034454;28;642;-67
2022/08/16 03:45:46;;;;;;;;;;;;;;;24.48;56.80;100234.47;1033028;28;646;-67
2022/08/16 03:46:37;;;;;;;;;;;;;;;24.50;56.75;100241.41;1034129;28;1963;-67
2022/08/16 03:47:28;;;;;;;;;;;;;;;24.49;56.92;100242.44;1034346;28;700;-67
2022/08/16 03:48:19;;;;;;;;;;;;;;;24.45;57.04;100238.44;1034813;28;650;-67
2022/08/16 03:49:10;;;;;;;;;;;;;;;24.45;57.00;100232.16;1034215;28;630;-67
2022/08/16 03:50:01;;;;;;;;;;;;;;;24.47;56.82;100236.38;1034438;28;642;-67
2022/08/16 03:50:51;;;;;;;;;;;;;;;24.47;56.83;100240.97;1032833;28;627;-67
2022/08/16 03:51:42;;;;;;;;;;;;;;;24.46;56.77;100242.84;1032736;28;635;-67
2022/08/16 03:52:32;;;;;;;;;;;;;;;24.46;56.80;100240.13;1032572;28;662;-66
2022/08/16 03:53:23;;;;;;;;;;;;;;;24.47;56.79;100244.53;1032658;28;649;-66
2022/08/16 03:54:13;;;;;;;;;;;;;;;24.46;56.71;100245.59;1032694;28;666;-67
2022/08/16 03:55:04;;;;;;;;;;;;;;;24.47;57.05;100238.25;1032966;28;693;-67
2022/08/16 03:55:54;;;;;;;;;;;;;;;24.45;57.09;100248.50;1034113;28;689;-66
2022/08/16 03:56:45;;;;;;;;;;;;;;;24.46;56.81;100239.28;1033863;28;680;-67
2022/08/16 03:57:35;;;;;;;;;;;;;;;24.44;56.75;100242.22;1032709;28;677;-66
2022/08/16 03:58:26;;;;;;;;;;;;;;;24.44;56.78;100236.78;1032730;28;697;-67
2022/08/16 03:59:16;;;;;;;;;;;;;;;24.42;56.97;100241.56;1032691;28;699;-66
2022/08/16 04:00:11;;;;;;;;;;;;;;;24.44;56.80;100238.66;1032678;28;689;-67
2022/08/16 04:01:02;;;;;;;;;;;;;;;24.41;57.06;100242.63;1034664;28;696;-67
2022/08/16 04:01:52;;;;;;;;;;;;;;;24.42;57.18;100241.56;1032646;28;661;-67
2022/08/16 04:02:42;;;;;;;;;;;;;;;24.45;56.96;100243.06;1032645;28;749;-67
2022/08/16 04:03:33;;;;;;;;;;;;;;;24.44;56.95;100242.22;1032640;28;727;-67
2022/08/16 04:04:23;;;;;;;;;;;;;;;24.41;56.91;100242.63;1032767;28;685;-66
2022/08/16 04:05:14;;;;;;;;;;;;;;;24.41;56.85;100248.06;1032495;28;631;-67
2022/08/16 04:06:06;;;;;;;;;;;;;;;24.41;57.16;100242.63;1032626;28;614;-66
2022/08/16 04:06:57;;;;;;;;;;;;;;;24.41;57.10;100242.63;1034677;28;1898;-67
2022/08/16 04:07:47;;;;;;;;;;;;;;;24.42;57.12;100248.91;1034281;28;626;-67
2022/08/16 04:08:38;;;;;;;;;;;;;;;24.43;56.66;100245.13;1032627;28;673;-67
2022/08/16 04:09:28;;;;;;;;;;;;;;;24.42;57.02;100247.03;1032622;28;702;-66
2022/08/16 04:10:18;;;;;;;;;;;;;;;24.40;57.10;100251.00;1032638;28;671;-66
2022/08/16 04:11:09;;;;;;;;;;;;;;;24.40;57.16;100243.66;1032432;28;894;-66
2022/08/16 04:11:59;;;;;;;;;;;;;;;24.38;56.99;100247.63;1033478;28;690;-66
2022/08/16 04:12:50;;;;;;;;;;;;;;;24.39;57.11;100255.59;1032250;28;692;-66
2022/08/16 04:13:40;;;;;;;;;;;;;;;24.40;56.91;100251.84;1032556;28;640;-66
2022/08/16 04:14:30;;;;;;;;;;;;;;;24.41;56.88;100248.06;1032638;28;701;-66
2022/08/16 04:15:21;;;;;;;;;;;;;;;24.38;56.89;100242.19;1032461;28;618;-68
2022/08/16 04:16:13;;;;;;;;;;;;;;;24.35;57.05;100248.91;1036358;28;1274;-68
2022/08/16 04:17:03;;;;;;;;;;;;;;;24.37;57.24;100252.25;1036731;28;670;-66
2022/08/16 04:17:53;;;;;;;;;;;;;;;24.37;57.00;100251.41;1037719;28;639;-67
2022/08/16 04:18:44;;;;;;;;;;;;;;;24.39;57.13;100250.16;1037770;28;632;-67
2022/08/16 04:19:34;;;;;;;;;;;;;;;24.38;56.79;100248.47;1036043;28;666;-66
2022/08/16 04:20:25;;;;;;;;;;;;;;;24.39;56.94;100255.59;1037794;28;697;-66
2022/08/16 04:21:15;;;;;;;;;;;;;;;24.37;56.90;100251.41;1037707;28;677;-67
2022/08/16 04:22:06;;;;;;;;;;;;;;;24.38;57.00;100256.63;1037687;28;666;-67
2022/08/16 04:22:56;;;;;;;;;;;;;;;24.37;56.96;100254.97;1037727;28;629;-67
2022/08/16 04:23:47;;;;;;;;;;;;;;;24.37;56.82;100254.97;1036305;28;693;-66
2022/08/16 04:24:37;;;;;;;;;;;;;;;24.36;57.34;100263.38;1036849;28;638;-66
2022/08/16 04:25:27;;;;;;;;;;;;;;;24.36;57.08;100258.75;1036769;28;694;-67